createdAt,value
2022-08-26T13:28:29.738Z,29.31
2022-08-26T13:30:56.121Z,29.53
2022-08-26T13:33:22.670Z,29.76
2022-08-26T13:35:49.211Z,29.84
2022-08-26T13:38:18.571Z,29.93
2022-08-26T13:40:59.801Z,30.27
2022-08-26T13:43:27.765Z,30.39
2022-08-26T13:45:54.499Z,30.44
2022-08-26T13:48:23.334Z,30.48
2022-08-26T13:50:50.571Z,30.69
2022-08-26T13:53:17.635Z,30.66
2022-08-26T13:55:44.475Z,30.71
2022-08-26T13:58:11.679Z,31.01
2022-08-26T14:00:39.715Z,30.98
2022-08-26T14:03:10.223Z,31.14
2022-08-26T14:05:39.047Z,31.07
2022-08-26T14:08:05.655Z,31.08
2022-08-26T14:10:32.582Z,31.19
2022-08-26T14:12:59.066Z,31.00
2022-08-26T14:15:25.824Z,31.01
2022-08-26T14:17:54.168Z,31.14
2022-08-26T14:20:25.805Z,30.84
2022-08-26T14:23:12.622Z,30.87
2022-08-26T14:25:39.061Z,31.04
2022-08-26T14:28:05.459Z,30.51
2022-08-26T14:30:31.998Z,30.48
2022-08-26T14:33:01.712Z,30.32
2022-08-26T14:35:30.328Z,30.54
2022-08-26T14:37:57.375Z,30.60
2022-08-26T14:40:28.415Z,30.28
2022-08-26T14:42:55.045Z,30.49
2022-08-26T14:45:27.264Z,30.45
2022-08-26T14:47:56.478Z,30.33
2022-08-26T14:50:25.142Z,30.43
2022-08-26T14:53:27.645Z,30.51
2022-08-26T14:55:54.029Z,30.70
2022-08-26T14:58:20.344Z,30.65
2022-08-26T15:00:46.672Z,30.86
2022-08-26T15:05:47.980Z,31.07
2022-08-26T15:08:14.730Z,31.07
2022-08-26T15:10:41.504Z,31.00
2022-08-26T15:13:07.832Z,31.01
2022-08-26T15:15:34.269Z,31.03
2022-08-26T15:18:00.618Z,30.72
2022-08-26T15:20:27.392Z,30.78
2022-08-26T15:22:53.730Z,30.63
2022-08-26T15:25:20.132Z,30.05
2022-08-26T15:27:46.549Z,29.85
2022-08-26T15:30:13.217Z,30.14
2022-08-26T15:32:39.685Z,29.29
2022-08-26T15:35:09.030Z,28.69
2022-08-26T15:37:36.152Z,28.95
2022-08-26T15:40:03.622Z,29.22
2022-08-26T15:42:30.119Z,29.43
2022-08-26T15:44:56.607Z,28.36
2022-08-26T15:47:23.852Z,28.20
2022-08-26T15:49:50.247Z,28.46
2022-08-26T15:52:17.038Z,28.34
2022-08-26T15:54:43.503Z,28.06
2022-08-26T15:57:12.338Z,28.27
2022-08-26T15:59:40.094Z,27.33
2022-08-26T16:02:07.060Z,27.76
2022-08-26T16:04:33.495Z,27.49
2022-08-26T16:07:00.085Z,27.31
2022-08-26T16:09:27.681Z,27.66
2022-08-26T16:11:54.897Z,27.34
2022-08-26T16:14:21.267Z,27.22
2022-08-26T16:16:47.863Z,27.03
2022-08-26T16:19:14.249Z,26.94
2022-08-26T16:21:41.435Z,26.85
2022-08-26T16:24:07.843Z,27.05
2022-08-26T16:26:36.987Z,26.65
2022-08-26T16:29:07.511Z,26.73
2022-08-26T16:31:33.946Z,26.35
2022-08-26T16:34:00.472Z,26.71
2022-08-26T16:36:27.404Z,27.11
2022-08-26T16:38:56.071Z,27.25
2022-08-26T16:41:27.409Z,27.42
2022-08-26T16:43:54.460Z,26.68
2022-08-26T16:46:25.368Z,26.64
2022-08-26T16:48:54.181Z,26.60
2022-08-26T16:51:22.946Z,26.48
2022-08-26T16:53:51.155Z,26.53
2022-08-26T16:56:20.586Z,25.88
2022-08-26T16:58:50.519Z,25.53
2022-08-26T17:01:17.463Z,25.53
2022-08-26T17:03:43.882Z,25.12
2022-08-26T17:06:10.622Z,25.26
2022-08-26T17:08:38.305Z,25.41
2022-08-26T17:11:05.334Z,25.03
2022-08-26T17:13:35.207Z,25.13
2022-08-26T17:16:04.613Z,24.85
2022-08-26T17:18:32.309Z,25.02
2022-08-26T17:21:07.038Z,25.20
2022-08-26T17:23:34.089Z,25.31
2022-08-26T17:26:00.662Z,25.42
2022-08-26T17:28:27.322Z,25.78
2022-08-26T17:30:56.246Z,25.24
2022-08-26T17:33:24.782Z,25.15
2022-08-26T17:35:52.890Z,24.68
2022-08-26T17:38:19.703Z,24.94
2022-08-26T17:40:46.078Z,25.20
2022-08-26T17:43:12.720Z,25.06
2022-08-26T17:45:40.597Z,25.03
2022-08-26T17:48:08.402Z,25.12
2022-08-26T17:50:35.548Z,25.17
2022-08-26T17:53:01.902Z,25.15
2022-08-26T17:55:29.069Z,25.30
2022-08-26T17:57:55.442Z,25.10
2022-08-26T18:00:26.380Z,24.95
2022-08-26T18:02:56.696Z,24.56
2022-08-26T18:05:23.287Z,24.46
2022-08-26T18:07:49.853Z,24.50
2022-08-26T18:10:18.929Z,24.44
2022-08-26T18:12:45.409Z,24.53
2022-08-26T18:15:15.542Z,24.75
2022-08-26T18:17:42.523Z,24.87
2022-08-26T18:20:12.720Z,24.16
2022-08-26T18:22:39.511Z,24.17
2022-08-26T18:25:07.331Z,24.21
2022-08-26T18:27:35.976Z,24.39
2022-08-26T18:30:05.005Z,24.58
2022-08-26T18:32:31.443Z,24.57
2022-08-26T18:34:57.983Z,24.47
2022-08-26T18:37:25.791Z,24.09
2022-08-26T18:39:54.496Z,24.25
2022-08-26T18:42:20.976Z,24.37
2022-08-26T18:44:50.731Z,24.22
2022-08-26T18:47:17.535Z,23.84
2022-08-26T18:49:44.142Z,23.63
2022-08-26T18:52:10.681Z,23.40
2022-08-26T18:54:37.115Z,23.18
2022-08-26T18:57:03.756Z,23.02
2022-08-26T18:59:33.465Z,23.01
2022-08-26T19:02:00.074Z,22.96
2022-08-26T19:04:27.020Z,22.79
2022-08-26T19:06:53.826Z,22.46
2022-08-26T19:09:20.963Z,21.99
2022-08-26T19:11:49.669Z,21.85
2022-08-26T19:14:16.675Z,21.68
2022-08-26T19:16:45.929Z,21.62
2022-08-26T19:19:13.291Z,21.57
2022-08-26T19:21:39.876Z,21.29
2022-08-26T19:24:12.205Z,21.34
2022-08-26T19:26:39.022Z,21.38
2022-08-26T19:29:05.754Z,21.48
2022-08-26T19:31:32.199Z,21.40
2022-08-26T19:33:58.943Z,21.37
2022-08-26T19:36:26.506Z,21.42
2022-08-26T19:38:53.578Z,21.07
2022-08-26T19:41:26.652Z,20.92
2022-08-26T19:44:06.972Z,20.95
2022-08-26T19:46:33.511Z,20.91
2022-08-26T19:48:59.979Z,21.07
2022-08-26T19:51:32.973Z,21.23
2022-08-26T19:56:30.268Z,21.09
2022-08-26T19:58:57.088Z,21.25
2022-08-26T20:01:23.788Z,21.41
2022-08-26T20:03:50.368Z,21.40
2022-08-26T20:06:16.911Z,21.37
2022-08-26T20:08:44.501Z,21.09
2022-08-26T20:11:15.727Z,21.16
2022-08-26T20:13:43.338Z,20.89
2022-08-26T20:16:11.794Z,20.91
2022-08-26T20:21:17.999Z,20.95
2022-08-26T20:23:44.566Z,20.95
2022-08-26T20:26:11.016Z,20.76
2022-08-26T20:28:37.494Z,20.63
2022-08-26T20:31:04.035Z,20.41
2022-08-26T20:33:31.585Z,20.47
2022-08-26T20:36:13.087Z,20.65
2022-08-26T20:38:39.400Z,20.65
2022-08-26T20:41:05.801Z,20.78
2022-08-26T20:43:32.466Z,20.91
2022-08-26T20:45:59.494Z,20.89
2022-08-26T20:48:25.854Z,21.08
2022-08-26T20:50:56.943Z,21.29
2022-08-26T20:53:24.286Z,21.47
2022-08-26T20:55:53.727Z,21.40
2022-08-26T20:58:23.025Z,21.24
2022-08-26T21:00:49.446Z,21.37
2022-08-26T21:03:15.840Z,21.49
2022-08-26T21:05:42.450Z,21.46
2022-08-26T21:08:09.782Z,21.36
2022-08-26T21:10:39.208Z,21.82
2022-08-26T21:13:05.545Z,22.03
2022-08-26T21:15:31.889Z,21.92
2022-08-26T21:17:59.060Z,22.14
2022-08-26T21:20:25.483Z,21.86
2022-08-26T21:22:52.446Z,21.66
2022-08-26T21:25:18.942Z,21.92
2022-08-26T21:27:45.444Z,21.39
2022-08-26T21:30:15.094Z,21.82
2022-08-26T21:32:41.854Z,22.02
2022-08-26T21:35:08.905Z,21.92
2022-08-26T21:37:35.231Z,22.00
2022-08-26T21:40:05.310Z,21.83
2022-08-26T21:42:33.960Z,21.89
2022-08-26T21:45:01.597Z,21.97
2022-08-26T21:47:28.460Z,21.94
2022-08-26T21:49:54.821Z,22.12
2022-08-26T21:52:21.354Z,22.18
2022-08-26T21:54:49.299Z,22.11
2022-08-26T21:57:16.321Z,22.04
2022-08-26T21:59:42.699Z,21.76
2022-08-26T22:02:09.157Z,21.53
2022-08-26T22:04:36.042Z,21.58
2022-08-26T22:07:03.345Z,21.85
2022-08-26T22:09:31.528Z,21.99
2022-08-26T22:11:58.664Z,22.16
2022-08-26T22:14:30.383Z,22.13
2022-08-26T22:16:59.052Z,22.00
2022-08-26T22:19:25.594Z,21.79
2022-08-26T22:21:54.701Z,21.40
2022-08-26T22:24:23.078Z,21.57
2022-08-26T22:26:50.245Z,21.85
2022-08-26T22:29:18.539Z,22.15
2022-08-26T22:31:45.238Z,22.27
2022-08-26T22:34:17.082Z,22.38
2022-08-26T22:36:46.456Z,22.57
2022-08-26T22:39:15.342Z,22.73
2022-08-26T22:41:43.287Z,22.83
2022-08-26T22:44:11.513Z,22.90
2022-08-26T22:46:38.515Z,22.95
2022-08-26T22:49:05.340Z,22.94
2022-08-26T22:51:32.022Z,22.91
2022-08-26T22:53:58.372Z,22.97
2022-08-26T22:56:24.761Z,23.09
2022-08-26T22:58:51.156Z,22.93
2022-08-26T23:01:17.522Z,22.88
2022-08-26T23:03:44.751Z,22.97
2022-08-26T23:06:11.560Z,22.95
2022-08-26T23:08:39.420Z,22.84
2022-08-26T23:11:12.805Z,22.86
2022-08-26T23:13:39.183Z,22.92
2022-08-26T23:16:09.508Z,22.88
2022-08-26T23:18:36.356Z,22.79
2022-08-26T23:21:02.732Z,22.82
2022-08-26T23:23:29.063Z,22.94
2022-08-26T23:25:55.667Z,22.88
2022-08-26T23:28:22.917Z,22.88
2022-08-26T23:30:49.992Z,22.91
2022-08-26T23:33:16.606Z,22.94
2022-08-26T23:35:43.854Z,22.91
2022-08-26T23:38:14.162Z,22.95
2022-08-26T23:40:41.271Z,23.00
2022-08-26T23:43:11.167Z,23.05
2022-08-26T23:45:37.667Z,22.86
2022-08-26T23:48:04.467Z,22.93
2022-08-26T23:50:50.084Z,22.82
2022-08-26T23:53:19.881Z,22.54
2022-08-26T23:55:48.889Z,22.01
2022-08-26T23:58:17.697Z,21.45
